createdAt,value
2022-10-14T00:01:22.780Z,97773.31
2022-10-14T00:03:51.421Z,97782.31
2022-10-14T00:06:23.458Z,97773.09
2022-10-14T00:08:51.932Z,97777.28
2022-10-14T00:11:27.701Z,97766.16
2022-10-14T00:13:57.549Z,97756.09
2022-10-14T00:16:31.246Z,97768.38
2022-10-14T00:18:59.811Z,97749.69
2022-10-14T00:21:28.959Z,97754.44
2022-10-14T00:23:58.087Z,97750.00
2022-10-14T00:26:31.618Z,97750.31
2022-10-14T00:29:00.444Z,97747.47
2022-10-14T00:31:33.055Z,97743.53
2022-10-14T00:34:01.497Z,97745.56
2022-10-14T00:36:29.854Z,97746.47
2022-10-14T00:38:58.215Z,97751.69
2022-10-14T00:41:28.814Z,97746.25
2022-10-14T00:44:04.866Z,97751.78
2022-10-14T00:46:43.712Z,97746.97
2022-10-14T00:49:21.387Z,97746.28
2022-10-14T00:51:59.142Z,97741.22
2022-10-14T00:54:41.214Z,97735.69
2022-10-14T00:57:10.121Z,97746.97
2022-10-14T00:59:38.478Z,97737.16
2022-10-14T01:02:06.964Z,97745.63
2022-10-14T01:04:36.569Z,97736.28
2022-10-14T01:07:34.844Z,97732.97
2022-10-14T01:10:20.812Z,97736.59
2022-10-14T01:13:04.959Z,97737.47
2022-10-14T01:15:41.980Z,97739.22
2022-10-14T01:18:19.571Z,97731.38
2022-10-14T01:21:23.970Z,97728.53
2022-10-14T01:24:05.796Z,97727.63
2022-10-14T01:26:44.372Z,97729.31
2022-10-14T01:29:46.008Z,97720.91
2022-10-14T01:32:24.333Z,97722.66
2022-10-14T01:35:11.151Z,97714.31
2022-10-14T01:37:42.029Z,97709.78
2022-10-14T01:40:14.295Z,97705.75
2022-10-14T01:42:42.725Z,97712.47
2022-10-14T01:45:19.733Z,97716.94
2022-10-14T01:47:49.785Z,97716.66
2022-10-14T01:50:20.042Z,97706.16
2022-10-14T01:53:02.527Z,97710.63
2022-10-14T01:55:34.769Z,97708.84
2022-10-14T01:58:03.482Z,97701.56
2022-10-14T02:00:33.008Z,97704.72
2022-10-14T02:03:03.478Z,97711.03
2022-10-14T02:05:41.651Z,97708.09
2022-10-14T02:08:21.190Z,97706.38
2022-10-14T02:11:09.219Z,97708.13
2022-10-14T02:13:50.451Z,97706.78
2022-10-14T02:16:34.246Z,97703.19
2022-10-14T02:19:33.181Z,97703.78
2022-10-14T02:22:13.179Z,97710.91
2022-10-14T02:24:43.784Z,97711.94
2022-10-14T02:27:15.441Z,97704.53
2022-10-14T02:29:45.620Z,97706.16
2022-10-14T02:32:15.421Z,97707.13
2022-10-14T02:34:45.666Z,97705.06
2022-10-14T02:37:14.111Z,97707.28
2022-10-14T02:39:45.080Z,97704.03
2022-10-14T02:42:13.883Z,97701.59
2022-10-14T02:44:58.008Z,97698.66
2022-10-14T02:47:27.188Z,97701.50
2022-10-14T02:49:55.937Z,97701.31
2022-10-14T02:52:26.084Z,97698.13
2022-10-14T02:54:54.951Z,97701.94
2022-10-14T02:57:23.907Z,97699.63
2022-10-14T02:59:52.256Z,97704.78
2022-10-14T03:02:22.313Z,97695.81
2022-10-14T03:04:51.469Z,97697.22
2022-10-14T03:07:19.797Z,97699.47
2022-10-14T03:09:53.269Z,97691.25
2022-10-14T03:12:21.972Z,97690.22
2022-10-14T03:14:51.622Z,97695.22
2022-10-14T03:17:20.766Z,97694.38
2022-10-14T03:19:51.431Z,97693.31
2022-10-14T03:22:20.436Z,97695.94
2022-10-14T03:24:49.131Z,97693.19
2022-10-14T03:27:36.661Z,97681.63
2022-10-14T03:30:10.500Z,97684.91
2022-10-14T03:32:46.888Z,97685.91
2022-10-14T03:35:30.830Z,97685.75
2022-10-14T03:38:03.850Z,97684.59
2022-10-14T03:40:35.680Z,97686.53
2022-10-14T03:43:09.182Z,97690.72
2022-10-14T03:45:46.800Z,97684.78
2022-10-14T03:48:17.823Z,97685.56
2022-10-14T03:50:47.812Z,97686.19
2022-10-14T03:53:16.150Z,97680.31
2022-10-14T03:55:45.970Z,97679.22
2022-10-14T03:58:14.849Z,97685.06
2022-10-14T04:00:50.014Z,97679.38
2022-10-14T04:03:43.064Z,97677.44
2022-10-14T04:06:11.474Z,97676.72
2022-10-14T04:08:39.857Z,97683.34
2022-10-14T04:11:20.936Z,97682.88
2022-10-14T04:13:51.986Z,97674.97
2022-10-14T04:16:21.174Z,97675.41
2022-10-14T04:19:04.829Z,97672.78
2022-10-14T04:21:33.240Z,97672.44
2022-10-14T04:24:07.386Z,97671.00
2022-10-14T04:26:43.269Z,97675.31
2022-10-14T04:29:24.770Z,97669.03
2022-10-14T04:32:03.442Z,97661.06
2022-10-14T04:34:32.232Z,97662.13
2022-10-14T04:37:01.681Z,97673.53
2022-10-14T04:39:46.034Z,97667.41
2022-10-14T04:42:14.480Z,97664.84
2022-10-14T04:44:46.773Z,97667.34
2022-10-14T04:47:16.614Z,97669.31
2022-10-14T04:49:48.246Z,97669.31
2022-10-14T04:52:21.501Z,97664.06
2022-10-14T04:54:56.571Z,97666.31
2022-10-14T04:57:35.917Z,97671.13
2022-10-14T05:00:05.483Z,97669.59
2022-10-14T05:02:56.685Z,97673.72
2022-10-14T05:05:32.362Z,97668.25
2022-10-14T05:08:03.960Z,97666.81
2022-10-14T05:10:39.551Z,97669.84
2022-10-14T05:13:12.327Z,97664.25
2022-10-14T05:15:54.069Z,97668.75
2022-10-14T05:18:23.341Z,97670.97
2022-10-14T05:21:01.587Z,97670.94
2022-10-14T05:23:50.066Z,97669.28
2022-10-14T05:26:19.039Z,97667.84
2022-10-14T05:28:49.188Z,97678.47
2022-10-14T05:31:17.809Z,97665.91
2022-10-14T05:33:53.566Z,97675.09
2022-10-14T05:36:22.533Z,97669.19
2022-10-14T05:38:51.019Z,97671.22
2022-10-14T05:41:23.263Z,97671.75
2022-10-14T05:43:52.059Z,97673.03
2022-10-14T05:46:21.406Z,97676.53
2022-10-14T05:48:57.231Z,97683.47
2022-10-14T05:51:26.651Z,97679.38
2022-10-14T05:54:02.594Z,97674.22
2022-10-14T05:56:31.832Z,97685.63
2022-10-14T05:59:00.521Z,97682.34
2022-10-14T06:01:29.550Z,97690.25
2022-10-14T06:03:58.731Z,97682.06
2022-10-14T06:06:29.084Z,97687.69
2022-10-14T06:08:59.062Z,97693.41
2022-10-14T06:11:27.507Z,97692.00
2022-10-14T06:13:56.593Z,97693.94
2022-10-14T06:16:25.146Z,97695.56
2022-10-14T06:18:54.588Z,97705.81
2022-10-14T06:21:24.102Z,97703.63
2022-10-14T06:23:52.586Z,97713.84
2022-10-14T06:26:22.074Z,97705.84
2022-10-14T06:28:50.577Z,97701.00
2022-10-14T06:31:19.123Z,97700.06
2022-10-14T06:33:47.570Z,97699.19
2022-10-14T06:36:16.189Z,97698.66
2022-10-14T06:38:44.616Z,97698.66
2022-10-14T06:41:13.056Z,97695.25
2022-10-14T06:43:42.738Z,97695.09
2022-10-14T06:46:11.251Z,97694.50
2022-10-14T06:48:39.766Z,97701.56
2022-10-14T06:51:08.263Z,97691.91
2022-10-14T06:53:36.701Z,97693.16
2022-10-14T06:56:06.487Z,97700.00
2022-10-14T06:58:35.048Z,97690.31
2022-10-14T07:01:08.139Z,97695.81
2022-10-14T07:03:37.235Z,97693.59
2022-10-14T07:06:07.213Z,97698.34
2022-10-14T07:08:35.693Z,97695.19
2022-10-14T07:11:04.896Z,97697.00
2022-10-14T07:13:34.767Z,97693.91
2022-10-14T07:16:03.706Z,97690.19
2022-10-14T07:18:32.369Z,97694.63
2022-10-14T07:21:04.998Z,97695.00
2022-10-14T07:23:33.529Z,97693.56
2022-10-14T07:26:02.740Z,97692.75
2022-10-14T07:28:31.428Z,97691.84
2022-10-14T07:31:07.722Z,97686.16
2022-10-14T07:36:10.557Z,97691.84
2022-10-14T07:38:39.052Z,97692.41
2022-10-14T07:41:16.787Z,97690.66
2022-10-14T07:43:46.599Z,97696.78
2022-10-14T07:46:15.660Z,97686.31
2022-10-14T07:48:56.535Z,97673.56
2022-10-14T07:51:27.797Z,97677.53
2022-10-14T07:53:57.796Z,97680.03
2022-10-14T07:56:26.438Z,97680.41
2022-10-14T07:58:55.675Z,97676.69
2022-10-14T08:01:25.018Z,97673.31
2022-10-14T08:03:53.913Z,97671.75
2022-10-14T08:06:22.842Z,97672.78
2022-10-14T08:08:51.592Z,97663.38
2022-10-14T08:11:28.217Z,97659.81
2022-10-14T08:13:58.226Z,97657.63
2022-10-14T08:16:29.094Z,97654.75
2022-10-14T08:18:59.678Z,97659.69
2022-10-14T08:21:28.779Z,97657.91
2022-10-14T08:23:57.809Z,97661.19
2022-10-14T08:26:35.713Z,97655.56
2022-10-14T08:29:10.855Z,97656.84
2022-10-14T08:31:39.705Z,97660.16
2022-10-14T08:34:11.228Z,97654.34
2022-10-14T08:36:40.580Z,97657.63
2022-10-14T08:42:00.400Z,97661.72
2022-10-14T08:44:38.183Z,97661.50
2022-10-14T08:47:16.086Z,97659.06
2022-10-14T08:50:06.277Z,97652.84
2022-10-14T08:52:58.294Z,97657.03
2022-10-14T08:55:47.222Z,97658.94
2022-10-14T08:58:32.445Z,97652.41
2022-10-14T09:01:24.601Z,97658.66
2022-10-14T09:03:55.304Z,97650.59
2022-10-14T09:06:29.595Z,97643.00
2022-10-14T09:09:01.267Z,97648.47
2022-10-14T09:11:33.652Z,97641.94
2022-10-14T09:14:04.186Z,97643.50
2022-10-14T09:16:36.705Z,97649.78
2022-10-14T09:19:09.567Z,97643.78
2022-10-14T09:21:52.165Z,97639.31
2022-10-14T09:24:22.861Z,97634.31
2022-10-14T09:27:01.407Z,97631.78
2022-10-14T09:29:33.480Z,97627.31
2022-10-14T09:32:05.302Z,97624.38
2022-10-14T09:34:48.094Z,97632.22
2022-10-14T09:37:28.413Z,97624.63
2022-10-14T09:40:07.959Z,97624.03
2022-10-14T09:42:52.235Z,97609.41
2022-10-14T09:45:25.254Z,97611.13
2022-10-14T09:47:58.416Z,97613.69
2022-10-14T09:50:38.805Z,97608.50
2022-10-14T09:53:18.216Z,97599.66
2022-10-14T09:55:55.119Z,97615.78
2022-10-14T09:58:37.200Z,97605.47
2022-10-14T10:01:13.977Z,97603.75
2022-10-14T10:03:47.025Z,97607.28
2022-10-14T10:06:20.616Z,97610.56
2022-10-14T10:08:56.794Z,97603.81
2022-10-14T10:11:39.914Z,97608.22
2022-10-14T10:14:31.768Z,97602.19
2022-10-14T10:17:10.660Z,97601.13
2022-10-14T10:19:46.186Z,97598.28
2022-10-14T10:22:32.348Z,97589.91
2022-10-14T10:25:04.356Z,97589.25
2022-10-14T10:27:37.944Z,97592.75
2022-10-14T10:30:21.222Z,97585.97
2022-10-14T10:33:27.959Z,97580.38
2022-10-14T10:36:42.094Z,97576.50
2022-10-14T10:39:29.049Z,97579.06
2022-10-14T10:42:04.782Z,97568.00
2022-10-14T10:44:51.888Z,97576.44
2022-10-14T10:47:33.004Z,97565.47
2022-10-14T10:50:13.092Z,97570.47
2022-10-14T10:53:18.074Z,97562.53
2022-10-14T10:56:15.381Z,97564.91
2022-10-14T10:58:55.358Z,97559.91
2022-10-14T11:01:37.153Z,97554.22
2022-10-14T11:04:27.081Z,97552.84
2022-10-14T11:07:37.647Z,97565.16
2022-10-14T11:10:39.798Z,97550.22
2022-10-14T11:13:30.769Z,97554.34
2022-10-14T11:16:21.763Z,97548.84
2022-10-14T11:18:55.966Z,97539.06
2022-10-14T11:21:55.780Z,97543.00
2022-10-14T11:24:55.059Z,97539.69
2022-10-14T11:27:44.974Z,97533.38
2022-10-14T11:30:25.740Z,97537.44
2022-10-14T11:33:16.173Z,97523.56
2022-10-14T11:35:56.830Z,97522.66
2022-10-14T11:38:36.035Z,97524.47
2022-10-14T11:41:33.986Z,97523.03
2022-10-14T11:44:15.396Z,97517.41
2022-10-14T11:46:46.229Z,97521.38
2022-10-14T11:49:32.279Z,97515.31
2022-10-14T11:52:08.061Z,97510.72
2022-10-14T11:54:40.892Z,97506.53
2022-10-14T11:57:55.410Z,97511.78
2022-10-14T12:00:43.843Z,97510.19
2022-10-14T12:03:32.508Z,97514.97
2022-10-14T12:06:05.745Z,97505.63
2022-10-14T12:08:40.713Z,97508.75
2022-10-14T12:11:38.178Z,97503.75
2022-10-14T12:14:21.815Z,97510.31
2022-10-14T12:16:50.637Z,97514.75
2022-10-14T12:19:28.696Z,97505.84
2022-10-14T12:22:05.797Z,97498.03
2022-10-14T12:24:37.646Z,97508.09
2022-10-14T12:27:07.142Z,97504.47
2022-10-14T12:29:42.181Z,97510.28
2022-10-14T12:32:30.433Z,97500.63
2022-10-14T12:35:01.938Z,97504.47
2022-10-14T12:37:35.680Z,97507.44
2022-10-14T12:40:06.071Z,97515.50
2022-10-14T12:43:01.857Z,97513.97
2022-10-14T12:45:35.226Z,97507.19
2022-10-14T12:48:06.039Z,97510.06
2022-10-14T12:50:38.317Z,97503.53
2022-10-14T12:53:27.940Z,97504.84
2022-10-14T12:56:00.553Z,97511.38
2022-10-14T12:58:56.233Z,97512.94
2022-10-14T13:01:24.619Z,97509.56
2022-10-14T13:06:44.474Z,97505.22
2022-10-14T13:09:12.807Z,97506.78
2022-10-14T13:11:42.474Z,97510.09
2022-10-14T13:14:28.123Z,97506.41
2022-10-14T13:16:57.626Z,97505.63
2022-10-14T13:19:35.194Z,97506.66
2022-10-14T13:22:33.201Z,97507.97
2022-10-14T13:25:15.993Z,97512.41
2022-10-14T13:28:01.907Z,97508.22
2022-10-14T13:30:51.290Z,97508.53
2022-10-14T13:33:42.294Z,97513.72
2022-10-14T13:36:42.842Z,97510.31
2022-10-14T13:39:12.129Z,97511.09
2022-10-14T13:41:41.350Z,97516.59
2022-10-14T13:44:10.465Z,97513.19
2022-10-14T13:46:43.508Z,97519.44
2022-10-14T13:49:23.853Z,97505.63
2022-10-14T13:51:53.214Z,97516.59
2022-10-14T13:54:24.098Z,97515.00
2022-10-14T13:57:38.268Z,97505.63
2022-10-14T14:00:39.559Z,97506.13
2022-10-14T14:02:48.106Z,97505.13
2022-10-14T14:05:22.594Z,97512.44
2022-10-14T14:11:03.763Z,97506.41
2022-10-14T14:13:30.419Z,97505.09
2022-10-14T14:15:59.658Z,97502.78
2022-10-14T14:18:49.462Z,97513.47
2022-10-14T14:21:27.331Z,97497.28
2022-10-14T14:23:58.515Z,97498.84
2022-10-14T14:26:39.732Z,97501.97
2022-10-14T14:29:18.307Z,97510.06
2022-10-14T14:32:05.556Z,97500.94
2022-10-14T14:34:35.645Z,97502.47
2022-10-14T14:39:57.206Z,97497.78
2022-10-14T14:42:33.645Z,97500.94
2022-10-14T14:45:05.274Z,97506.69
2022-10-14T14:47:33.855Z,97507.69
2022-10-14T14:52:53.010Z,97515.84
2022-10-14T14:55:41.150Z,97517.22
2022-10-14T14:58:44.926Z,97510.03
2022-10-14T15:01:26.947Z,97513.41
2022-10-14T15:04:12.621Z,97505.56
2022-10-14T15:06:51.706Z,97513.44
2022-10-14T15:09:34.945Z,97517.84
2022-10-14T15:12:18.102Z,97517.88
2022-10-14T15:14:49.904Z,97511.34
2022-10-14T15:17:40.336Z,97511.78
2022-10-14T15:20:11.980Z,97506.31
2022-10-14T15:22:41.603Z,97510.53
2022-10-14T15:25:23.837Z,97514.53
2022-10-14T15:27:55.191Z,97513.00
2022-10-14T15:30:39.519Z,97506.69
2022-10-14T15:33:16.973Z,97514.31
2022-10-14T15:35:54.491Z,97520.22
2022-10-14T15:38:23.157Z,97523.53
2022-10-14T15:40:52.338Z,97523.81
2022-10-14T15:43:27.703Z,97522.13
2022-10-14T15:46:19.113Z,97518.81
2022-10-14T15:48:55.306Z,97528.94
2022-10-14T15:51:23.854Z,97526.47
2022-10-14T15:53:52.863Z,97526.19
2022-10-14T15:56:21.604Z,97525.84
2022-10-14T15:58:50.190Z,97527.13
2022-10-14T16:01:21.467Z,97536.66
2022-10-14T16:03:56.344Z,97533.44
2022-10-14T16:06:24.919Z,97544.06
2022-10-14T16:08:57.939Z,97543.81
2022-10-14T16:11:27.702Z,97536.38
2022-10-14T16:13:56.609Z,97534.31
2022-10-14T16:16:33.502Z,97546.66
2022-10-14T16:19:05.202Z,97537.69
2022-10-14T16:21:33.977Z,97532.34
2022-10-14T16:24:03.377Z,97546.50
2022-10-14T16:26:33.280Z,97540.44
2022-10-14T16:29:03.930Z,97540.50
2022-10-14T16:31:34.377Z,97538.75
2022-10-14T16:34:03.143Z,97549.91
2022-10-14T16:36:36.928Z,97548.19
2022-10-14T16:39:11.334Z,97557.34
2022-10-14T16:41:40.210Z,97555.22
2022-10-14T16:44:09.240Z,97551.03
2022-10-14T16:46:56.540Z,97555.38
2022-10-14T16:49:26.358Z,97565.69
2022-10-14T16:52:05.521Z,97562.59
2022-10-14T16:54:43.243Z,97565.13
2022-10-14T16:57:35.026Z,97564.75
2022-10-14T17:00:04.223Z,97572.53
2022-10-14T17:02:38.021Z,97570.31
2022-10-14T17:05:17.203Z,97570.09
2022-10-14T17:08:07.002Z,97562.63
2022-10-14T17:10:40.814Z,97566.41
2022-10-14T17:13:09.584Z,97562.34
2022-10-14T17:15:39.909Z,97568.75
2022-10-14T17:18:12.246Z,97567.34
2022-10-14T17:20:44.273Z,97577.44
2022-10-14T17:23:13.820Z,97576.50
2022-10-14T17:25:57.604Z,97582.53
2022-10-14T17:28:30.161Z,97575.19
2022-10-14T17:31:06.062Z,97583.47
2022-10-14T17:33:52.149Z,97575.09
2022-10-14T17:36:28.772Z,97577.94
2022-10-14T17:39:06.837Z,97576.31
2022-10-14T17:41:35.590Z,97586.63
2022-10-14T17:44:13.359Z,97589.50
2022-10-14T17:46:59.713Z,97581.50
2022-10-14T17:49:32.702Z,97584.69
2022-10-14T17:52:06.655Z,97582.41
2022-10-14T17:54:37.967Z,97579.78
2022-10-14T17:57:11.756Z,97582.09
2022-10-14T17:59:47.962Z,97580.00
2022-10-14T18:02:20.337Z,97590.97
2022-10-14T18:04:48.959Z,97590.94
2022-10-14T18:07:25.793Z,97595.53
2022-10-14T18:09:56.846Z,97596.22
2022-10-14T18:12:25.562Z,97605.69
2022-10-14T18:14:58.652Z,97608.84
2022-10-14T18:17:30.765Z,97605.91
2022-10-14T18:20:04.518Z,97603.44
2022-10-14T18:22:34.597Z,97605.38
2022-10-14T18:25:07.970Z,97611.09
2022-10-14T18:27:38.630Z,97609.00
2022-10-14T18:30:12.237Z,97616.72
2022-10-14T18:32:57.584Z,97614.91
2022-10-14T18:35:29.116Z,97613.69
2022-10-14T18:37:58.034Z,97619.44
2022-10-14T18:40:26.511Z,97613.66
2022-10-14T18:43:01.002Z,97618.34
2022-10-14T18:45:29.538Z,97621.13
2022-10-14T18:48:00.497Z,97614.47
2022-10-14T18:50:30.251Z,97606.94
2022-10-14T18:53:21.085Z,97615.56
2022-10-14T18:55:58.014Z,97616.56
2022-10-14T18:58:32.212Z,97619.50
2022-10-14T19:01:08.350Z,97623.94
2022-10-14T19:03:40.484Z,97620.22
2022-10-14T19:06:13.301Z,97617.16
2022-10-14T19:08:42.542Z,97623.94
2022-10-14T19:11:18.410Z,97629.97
2022-10-14T19:14:17.786Z,97623.50
2022-10-14T19:16:55.200Z,97631.34
2022-10-14T19:19:29.275Z,97640.56
2022-10-14T19:22:19.293Z,97636.88
2022-10-14T19:24:55.959Z,97643.88
2022-10-14T19:30:27.047Z,97638.22
2022-10-14T19:32:57.753Z,97644.97
2022-10-14T19:35:28.379Z,97639.81
2022-10-14T19:37:58.847Z,97650.28
2022-10-14T19:40:28.106Z,97653.84
2022-10-14T19:43:05.027Z,97665.22
2022-10-14T19:45:41.193Z,97668.66
2022-10-14T19:48:13.377Z,97659.28
2022-10-14T19:50:46.514Z,97660.75
2022-10-14T19:53:15.644Z,97660.72
2022-10-14T19:55:49.296Z,97666.81
2022-10-14T19:58:18.305Z,97664.78
2022-10-14T20:00:47.254Z,97665.38
2022-10-14T20:03:18.393Z,97661.53
2022-10-14T20:05:49.078Z,97669.09
2022-10-14T20:08:18.200Z,97665.25
2022-10-14T20:10:46.813Z,97660.75
2022-10-14T20:13:15.606Z,97665.59
2022-10-14T20:15:45.887Z,97667.06
2022-10-14T20:18:18.994Z,97670.09
2022-10-14T20:20:48.080Z,97664.22
2022-10-14T20:23:19.361Z,97664.38
2022-10-14T20:25:47.832Z,97674.81
2022-10-14T20:28:19.933Z,97666.03
2022-10-14T20:30:49.915Z,97673.69
2022-10-14T20:33:18.930Z,97673.47
2022-10-14T20:35:47.934Z,97677.31
2022-10-14T20:38:16.835Z,97662.25
2022-10-14T20:40:45.326Z,97668.88
2022-10-14T20:43:13.753Z,97660.75
2022-10-14T20:45:45.119Z,97659.09
2022-10-14T20:48:14.075Z,97665.28
2022-10-14T20:50:42.839Z,97666.84
2022-10-14T20:53:11.293Z,97658.28
2022-10-14T20:55:40.996Z,97669.19
2022-10-14T20:58:09.464Z,97665.28
2022-10-14T21:00:38.148Z,97661.97
2022-10-14T21:03:06.544Z,97672.44
2022-10-14T21:05:37.569Z,97674.13
2022-10-14T21:08:06.074Z,97675.94
2022-10-14T21:10:34.474Z,97676.63
2022-10-14T21:13:03.514Z,97677.09
2022-10-14T21:15:31.977Z,97671.91
2022-10-14T21:18:01.325Z,97674.72
2022-10-14T21:20:29.787Z,97671.22
2022-10-14T21:22:58.298Z,97671.22
2022-10-14T21:25:27.196Z,97672.59
2022-10-14T21:27:55.573Z,97673.50
2022-10-14T21:30:25.163Z,97675.56
2022-10-14T21:32:54.262Z,97682.56
2022-10-14T21:35:22.623Z,97680.22
2022-10-14T21:37:53.022Z,97676.84
2022-10-14T21:40:21.612Z,97672.69
2022-10-14T21:42:50.032Z,97675.50
2022-10-14T21:45:18.651Z,97673.50
2022-10-14T21:47:47.026Z,97684.50
2022-10-14T21:50:15.841Z,97676.50
2022-10-14T21:52:44.266Z,97675.50
2022-10-14T21:55:12.845Z,97681.34
2022-10-14T21:57:41.366Z,97679.75
2022-10-14T22:00:11.363Z,97676.72
2022-10-14T22:02:39.743Z,97682.47
2022-10-14T22:05:08.941Z,97680.66
2022-10-14T22:07:37.279Z,97694.44
2022-10-14T22:10:26.593Z,97685.47
2022-10-14T22:12:57.031Z,97683.59
2022-10-14T22:15:27.281Z,97679.09
2022-10-14T22:17:57.062Z,97690.78
2022-10-14T22:20:26.802Z,97689.19
2022-10-14T22:22:55.139Z,97684.41
2022-10-14T22:25:23.490Z,97686.53
2022-10-14T22:27:51.863Z,97688.69
2022-10-14T22:30:20.923Z,97692.84
2022-10-14T22:32:49.683Z,97693.81
2022-10-14T22:35:18.043Z,97685.28
2022-10-14T22:37:46.900Z,97691.72
2022-10-14T22:40:15.427Z,97687.94
2022-10-14T22:42:46.582Z,97694.06
2022-10-14T22:45:16.434Z,97700.50
2022-10-14T22:47:44.870Z,97703.88
2022-10-14T22:50:13.158Z,97702.75
2022-10-14T22:52:41.464Z,97698.69
2022-10-14T22:55:10.331Z,97699.81
2022-10-14T22:57:38.620Z,97700.59
2022-10-14T23:00:07.713Z,97700.13
2022-10-14T23:02:36.092Z,97700.13
2022-10-14T23:05:05.562Z,97694.47
2022-10-14T23:07:34.042Z,97695.44
2022-10-14T23:10:02.459Z,97695.84
2022-10-14T23:12:30.833Z,97694.84
2022-10-14T23:14:59.222Z,97702.59
2022-10-14T23:17:27.501Z,97694.41
2022-10-14T23:19:55.808Z,97704.13
2022-10-14T23:22:24.507Z,97696.78
2022-10-14T23:24:53.233Z,97702.97
2022-10-14T23:27:21.557Z,97700.03
2022-10-14T23:29:49.977Z,97703.16
2022-10-14T23:34:47.545Z,97708.50
2022-10-14T23:37:15.894Z,97703.69
2022-10-14T23:39:45.465Z,97700.25
2022-10-14T23:42:13.792Z,97706.50
2022-10-14T23:44:42.256Z,97714.78
2022-10-14T23:47:10.854Z,97707.31
2022-10-14T23:49:39.879Z,97706.09
2022-10-14T23:52:08.119Z,97705.66
2022-10-14T23:54:36.627Z,97709.72
2022-10-14T23:57:06.705Z,97705.97
2022-10-14T23:59:35.056Z,97710.84
